Time;durP1;ratioP1;P1;durP2;ratioP2;P2;SDS_P1;SDS_P2;PMS_P1;PMS_P2;Temp;Humidity;BMP_temperature;BMP_pressure;BME280_temperature;BME280_humidity;BME280_pressure;Samples;Min_cycle;Max_cycle;Signal;HPM_P1;HPM_P2
2021/03/14 00:00:23;;;;;;;0.70;0.53;;;5.00;99.90;;;;;;5091173;28;20952;-68
2021/03/14 00:02:50;;;;;;;0.77;0.70;;;4.90;99.90;;;;;;5090491;28;20529;-68
2021/03/14 00:05:17;;;;;;;1.90;0.70;;;4.80;99.90;;;;;;5091280;28;20541;-67
2021/03/14 00:07:44;;;;;;;1.20;0.63;;;5.00;99.90;;;;;;5091130;28;20812;-68
2021/03/14 00:10:12;;;;;;;0.80;0.70;;;5.00;99.90;;;;;;5091595;28;20517;-68
2021/03/14 00:12:39;;;;;;;0.80;0.70;;;5.20;99.90;;;;;;5090802;28;20545;-69
2021/03/14 00:15:07;;;;;;;1.07;0.90;;;5.20;99.90;;;;;;5091226;28;20473;-68
2021/03/14 00:17:34;;;;;;;0.60;0.50;;;5.10;99.90;;;;;;5090799;28;20448;-69
2021/03/14 00:20:00;;;;;;;0.73;0.60;;;5.30;99.90;;;;;;5090511;28;20529;-68
2021/03/14 00:22:28;;;;;;;0.77;0.60;;;5.40;99.90;;;;;;5090562;28;20523;-69
2021/03/14 00:24:54;;;;;;;0.80;0.70;;;5.40;99.90;;;;;;5090961;28;20506;-67
2021/03/14 00:27:20;;;;;;;0.93;0.70;;;5.40;99.90;;;;;;5091396;28;20605;-69
2021/03/14 00:29:47;;;;;;;1.37;0.80;;;5.30;99.90;;;;;;5090707;28;20504;-67
2021/03/14 00:32:13;;;;;;;1.27;0.80;;;5.30;99.90;;;;;;5090532;28;20806;-68
2021/03/14 00:34:40;;;;;;;1.10;0.60;;;5.10;99.90;;;;;;5089994;28;20534;-69
2021/03/14 00:37:08;;;;;;;0.80;0.80;;;5.00;99.90;;;;;;5091006;28;20433;-69
2021/03/14 00:39:35;;;;;;;1.33;0.70;;;4.60;99.90;;;;;;5090311;28;20682;-68
2021/03/14 00:42:02;;;;;;;1.10;0.80;;;4.50;99.90;;;;;;5090361;28;20480;-69
2021/03/14 00:44:29;;;;;;;2.23;1.00;;;4.50;99.90;;;;;;5090740;28;20528;-68
2021/03/14 00:46:55;;;;;;;1.10;0.80;;;4.30;99.90;;;;;;5090674;28;20505;-68
2021/03/14 00:49:22;;;;;;;0.70;0.70;;;4.30;99.90;;;;;;5091007;28;20531;-68
2021/03/14 00:51:49;;;;;;;0.83;0.53;;;4.30;99.90;;;;;;5090061;28;20880;-69
2021/03/14 00:54:15;;;;;;;0.67;0.53;;;4.10;99.90;;;;;;5090385;28;20479;-68
2021/03/14 00:56:43;;;;;;;1.23;1.13;;;4.00;99.90;;;;;;5090297;28;20523;-69
2021/03/14 00:59:10;;;;;;;1.00;0.60;;;4.20;99.90;;;;;;5090784;28;20487;-68
2021/03/14 01:01:36;;;;;;;0.83;0.70;;;4.20;99.90;;;;;;5089272;28;20469;-69
2021/03/14 01:04:03;;;;;;;0.73;0.70;;;4.30;99.90;;;;;;5089625;28;20535;-68
2021/03/14 01:06:30;;;;;;;0.97;0.60;;;4.30;99.90;;;;;;5090105;28;20448;-68
2021/03/14 01:08:56;;;;;;;0.60;0.50;;;4.40;99.90;;;;;;5089283;28;20594;-68
2021/03/14 01:11:23;;;;;;;0.90;0.63;;;4.30;99.90;;;;;;5090248;28;20528;-68
2021/03/14 01:13:50;;;;;;;0.97;0.70;;;4.30;99.90;;;;;;5089305;28;20461;-68
2021/03/14 01:16:17;;;;;;;1.63;0.60;;;4.20;99.90;;;;;;5090481;28;20567;-68
2021/03/14 01:18:43;;;;;;;0.90;0.60;;;4.20;99.90;;;;;;5088845;28;20567;-68
2021/03/14 01:21:10;;;;;;;0.67;0.67;;;4.20;99.90;;;;;;5089640;28;20448;-68
2021/03/14 01:23:36;;;;;;;0.67;0.60;;;4.00;99.90;;;;;;5088958;28;20450;-68
2021/03/14 01:26:03;;;;;;;0.73;0.50;;;4.00;99.90;;;;;;5090892;28;20553;-67
2021/03/14 01:28:29;;;;;;;1.03;0.70;;;4.10;99.90;;;;;;5090219;28;20457;-67
2021/03/14 01:30:56;;;;;;;1.23;0.50;;;4.00;99.90;;;;;;5089933;28;20885;-68
2021/03/14 01:33:23;;;;;;;0.93;0.50;;;4.10;99.90;;;;;;5093099;28;20447;-68
2021/03/14 01:35:49;;;;;;;0.50;0.50;;;4.10;99.90;;;;;;5094135;28;20535;-68
2021/03/14 01:38:16;;;;;;;0.70;0.50;;;4.00;99.90;;;;;;5093867;28;20468;-68
2021/03/14 01:40:42;;;;;;;1.23;1.13;;;4.10;99.90;;;;;;5094289;28;20543;-69
2021/03/14 01:43:08;;;;;;;0.60;0.60;;;4.30;99.90;;;;;;5093788;28;20862;-69
2021/03/14 01:45:35;;;;;;;3.13;2.13;;;4.30;99.90;;;;;;5093282;28;20504;-69
2021/03/14 01:48:06;;;;;;;1.50;1.20;;;4.40;99.90;;;;;;5094104;28;20502;-67
2021/03/14 01:50:33;;;;;;;1.50;1.30;;;4.30;99.90;;;;;;5094154;28;20459;-68
2021/03/14 01:53:00;;;;;;;0.70;0.67;;;4.30;99.90;;;;;;5093503;28;20452;-67
2021/03/14 01:55:26;;;;;;;0.60;0.40;;;4.30;99.90;;;;;;5094094;28;20515;-68
2021/03/14 01:57:53;;;;;;;1.47;0.70;;;4.30;99.90;;;;;;5093802;28;20582;-68
2021/03/14 02:00:23;;;;;;;0.80;0.60;;;4.30;99.90;;;;;;5093328;28;20498;-68
2021/03/14 02:02:49;;;;;;;0.70;0.50;;;4.30;99.90;;;;;;5093005;28;20535;-68
2021/03/14 02:05:18;;;;;;;0.67;0.60;;;4.40;99.90;;;;;;5093973;28;20532;-69
2021/03/14 02:07:47;;;;;;;1.87;0.70;;;4.40;99.90;;;;;;5093740;28;20506;-68
2021/03/14 02:10:15;;;;;;;0.60;0.53;;;4.30;99.90;;;;;;5093928;28;20454;-68
2021/03/14 02:12:46;;;;;;;1.33;0.53;;;4.30;99.90;;;;;;5092317;28;20973;-69
2021/03/14 02:15:14;;;;;;;5.70;1.70;;;4.30;99.90;;;;;;5094563;28;20497;-68
2021/03/14 02:17:42;;;;;;;1.53;0.70;;;4.20;99.90;;;;;;5094514;28;20531;-69
2021/03/14 02:20:11;;;;;;;0.60;0.40;;;4.20;99.90;;;;;;5094919;28;20568;-69
2021/03/14 02:22:41;;;;;;;0.77;0.50;;;4.20;99.90;;;;;;5092783;28;20552;-70
2021/03/14 02:25:13;;;;;;;0.80;0.50;;;4.20;99.90;;;;;;5093201;28;20991;-67
2021/03/14 02:27:42;;;;;;;0.87;0.60;;;4.10;99.90;;;;;;5093292;28;20480;-67
2021/03/14 02:30:11;;;;;;;1.33;0.60;;;4.10;99.90;;;;;;5093134;28;20551;-67
2021/03/14 02:32:38;;;;;;;0.67;0.53;;;4.00;99.90;;;;;;5092834;28;20931;-68
2021/03/14 02:35:06;;;;;;;0.60;0.50;;;4.00;99.90;;;;;;5096104;28;20454;-68
2021/03/14 02:37:34;;;;;;;0.60;0.47;;;4.10;99.90;;;;;;5095692;28;20523;-69
2021/03/14 02:40:02;;;;;;;0.70;0.60;;;4.10;99.90;;;;;;5096442;28;20598;-68
2021/03/14 02:42:29;;;;;;;0.70;0.63;;;4.10;99.90;;;;;;5092978;28;20475;-68
2021/03/14 02:44:57;;;;;;;0.60;0.60;;;4.00;99.90;;;;;;5091641;28;20582;-68
2021/03/14 02:47:25;;;;;;;0.60;0.57;;;4.10;99.90;;;;;;5093227;28;20534;-68
2021/03/14 02:49:52;;;;;;;0.80;0.60;;;4.00;99.90;;;;;;5091404;28;20538;-68
2021/03/14 02:52:20;;;;;;;0.60;0.60;;;4.00;99.90;;;;;;5092692;28;20467;-68
2021/03/14 02:54:49;;;;;;;0.70;0.60;;;4.00;99.90;;;;;;5092242;28;21088;-67
2021/03/14 02:57:17;;;;;;;0.60;0.50;;;4.10;99.90;;;;;;5092503;28;20484;-67
2021/03/14 02:59:44;;;;;;;1.20;0.80;;;4.10;99.90;;;;;;5091657;28;20595;-69
2021/03/14 03:02:12;;;;;;;0.60;0.60;;;4.00;99.90;;;;;;5091608;28;20848;-68
2021/03/14 03:04:38;;;;;;;1.47;0.60;;;3.90;99.90;;;;;;5077829;28;20529;-67
2021/03/14 03:07:05;;;;;;;0.70;0.60;;;3.90;99.90;;;;;;5092300;28;20533;-68
2021/03/14 03:09:32;;;;;;;0.87;0.60;;;3.90;99.90;;;;;;5091748;28;20542;-69
2021/03/14 03:11:58;;;;;;;0.60;0.50;;;4.10;99.90;;;;;;5090652;28;20478;-69
2021/03/14 03:14:29;;;;;;;0.73;0.60;;;3.90;99.90;;;;;;5091880;28;20494;-68
2021/03/14 03:16:56;;;;;;;0.80;0.50;;;3.90;99.90;;;;;;5091375;28;20796;-68
2021/03/14 03:19:24;;;;;;;0.90;0.80;;;3.80;99.90;;;;;;5091194;28;20476;-68
2021/03/14 03:21:52;;;;;;;0.67;0.53;;;4.00;99.90;;;;;;5090888;28;20531;-69
2021/03/14 03:24:19;;;;;;;0.70;0.70;;;3.90;99.90;;;;;;5091750;28;20481;-68
2021/03/14 03:26:47;;;;;;;3.33;0.70;;;3.90;99.90;;;;;;5092126;28;20859;-68
2021/03/14 03:29:14;;;;;;;1.60;0.80;;;3.90;99.90;;;;;;5088628;28;20803;-68
2021/03/14 03:31:40;;;;;;;0.97;0.77;;;3.90;99.90;;;;;;5091507;28;20547;-69
2021/03/14 03:34:07;;;;;;;1.03;0.73;;;3.70;99.90;;;;;;5091766;28;20570;-68
2021/03/14 03:36:35;;;;;;;1.37;0.77;;;3.80;99.90;;;;;;5092455;28;20451;-68
2021/03/14 03:39:05;;;;;;;2.03;1.07;;;3.80;99.90;;;;;;5091949;28;21013;-68
2021/03/14 03:41:32;;;;;;;0.80;0.57;;;3.90;99.90;;;;;;5092211;28;20524;-68
2021/03/14 03:44:01;;;;;;;0.90;0.80;;;4.20;99.90;;;;;;5090589;28;20540;-68
2021/03/14 03:46:28;;;;;;;0.80;0.80;;;4.10;99.90;;;;;;5091886;28;20527;-68
2021/03/14 03:48:56;;;;;;;1.37;0.80;;;3.90;99.90;;;;;;5091509;28;20539;-67
2021/03/14 03:51:26;;;;;;;0.70;0.60;;;3.80;99.90;;;;;;5091933;28;20526;-68
2021/03/14 03:53:56;;;;;;;0.73;0.70;;;3.80;99.90;;;;;;5090653;28;20503;-68
2021/03/14 03:56:24;;;;;;;1.50;1.20;;;4.00;99.90;;;;;;5091764;28;20526;-68
2021/03/14 03:58:52;;;;;;;1.60;1.50;;;3.90;99.90;;;;;;5090902;28;20484;-66
2021/03/14 04:01:19;;;;;;;1.00;0.90;;;4.00;99.90;;;;;;5092112;28;20472;-68
2021/03/14 04:03:47;;;;;;;1.13;0.70;;;4.00;99.90;;;;;;5089679;28;20522;-69
2021/03/14 04:06:15;;;;;;;0.80;0.70;;;4.10;99.90;;;;;;5092241;28;20528;-68
2021/03/14 04:08:44;;;;;;;0.80;0.70;;;4.00;99.90;;;;;;5091632;28;20539;-68
2021/03/14 04:11:14;;;;;;;0.80;0.77;;;3.90;99.90;;;;;;5091509;28;20450;-69
2021/03/14 04:13:42;;;;;;;0.70;0.60;;;3.90;99.90;;;;;;5089380;28;20532;-68
2021/03/14 04:16:10;;;;;;;0.70;0.70;;;3.90;99.90;;;;;;5089969;28;20487;-68
2021/03/14 04:18:38;;;;;;;0.70;0.70;;;3.90;99.90;;;;;;5090588;28;20560;-68
2021/03/14 04:21:06;;;;;;;0.60;0.57;;;4.00;99.90;;;;;;5091547;28;20472;-68
2021/03/14 04:23:34;;;;;;;0.80;0.70;;;3.80;99.90;;;;;;5090893;28;20527;-68
2021/03/14 04:26:01;;;;;;;1.23;1.13;;;3.80;99.90;;;;;;5090774;28;20470;-68
2021/03/14 04:28:31;;;;;;;0.83;0.77;;;3.90;99.90;;;;;;5090528;28;20500;-68
2021/03/14 04:30:59;;;;;;;1.00;0.70;;;3.80;99.90;;;;;;5090454;28;20585;-68
2021/03/14 04:33:28;;;;;;;2.90;1.30;;;3.80;99.90;;;;;;5090771;28;20815;-68
2021/03/14 04:35:58;;;;;;;0.97;0.87;;;3.70;99.90;;;;;;5090450;28;20539;-68
2021/03/14 04:38:26;;;;;;;0.80;0.73;;;3.80;99.90;;;;;;5091202;28;20477;-68
2021/03/14 04:40:54;;;;;;;1.13;0.90;;;4.00;99.90;;;;;;5090331;28;20456;-67
2021/03/14 04:43:22;;;;;;;0.80;0.60;;;4.00;99.90;;;;;;5089941;28;20474;-68
2021/03/14 04:45:50;;;;;;;0.70;0.63;;;3.90;99.90;;;;;;5090278;28;20455;-68
2021/03/14 04:48:17;;;;;;;0.97;0.87;;;3.80;99.90;;;;;;5092433;28;20535;-67
2021/03/14 04:50:45;;;;;;;0.80;0.67;;;3.80;99.90;;;;;;5091212;28;20455;-69
2021/03/14 04:53:12;;;;;;;1.00;0.80;;;3.70;99.90;;;;;;5090363;28;20483;-68
2021/03/14 04:55:42;;;;;;;0.80;0.70;;;3.70;99.90;;;;;;5090717;28;20546;-69
2021/03/14 04:58:12;;;;;;;1.90;0.80;;;3.60;99.90;;;;;;5091171;28;20909;-68
2021/03/14 05:00:40;;;;;;;1.47;1.10;;;3.70;99.90;;;;;;5089078;28;20480;-68
2021/03/14 05:03:10;;;;;;;0.70;0.70;;;3.70;99.90;;;;;;5088837;28;20535;-68
2021/03/14 05:05:39;;;;;;;0.90;0.80;;;3.70;99.90;;;;;;5087743;28;20523;-69
2021/03/14 05:08:07;;;;;;;1.00;0.80;;;3.50;99.90;;;;;;5093149;28;20995;-68
2021/03/14 05:10:34;;;;;;;1.20;0.60;;;3.50;99.90;;;;;;5094849;28;20463;-69
2021/03/14 05:13:01;;;;;;;2.30;0.93;;;3.50;99.90;;;;;;5092673;28;21003;-68
2021/03/14 05:15:28;;;;;;;2.70;1.27;;;3.50;99.90;;;;;;5094114;28;20523;-69
2021/03/14 05:17:56;;;;;;;1.47;0.80;;;3.50;99.90;;;;;;5094117;28;20488;-69
2021/03/14 05:20:24;;;;;;;1.57;0.93;;;3.50;99.90;;;;;;5093586;28;20949;-69
2021/03/14 05:22:54;;;;;;;0.80;0.80;;;3.50;99.90;;;;;;5093385;28;21017;-69
2021/03/14 05:25:21;;;;;;;1.33;0.87;;;3.60;99.90;;;;;;5094579;28;20598;-68
2021/03/14 05:27:50;;;;;;;0.90;0.60;;;3.60;99.90;;;;;;5094019;28;20472;-68
2021/03/14 05:30:20;;;;;;;1.60;0.77;;;3.60;99.90;;;;;;5094499;28;20485;-69
2021/03/14 05:32:46;;;;;;;2.07;0.60;;;3.60;99.90;;;;;;5093320;28;21042;-67
2021/03/14 05:35:13;;;;;;;2.30;0.70;;;3.40;99.90;;;;;;5094708;28;20590;-68
2021/03/14 05:37:40;;;;;;;1.07;0.60;;;3.50;99.90;;;;;;5094047;28;20487;-68
2021/03/14 05:40:18;;;;;;;4.63;0.70;;;3.60;99.90;;;;;;5094037;28;20579;-68
2021/03/14 05:42:45;;;;;;;1.00;0.80;;;3.60;99.90;;;;;;5093233;28;20439;-69
2021/03/14 05:45:12;;;;;;;0.80;0.70;;;3.60;99.90;;;;;;5094033;28;20448;-68
2021/03/14 05:47:40;;;;;;;1.00;0.67;;;3.60;99.90;;;;;;5093230;28;20971;-68
2021/03/14 05:50:09;;;;;;;0.63;0.60;;;3.70;99.90;;;;;;5093457;28;20493;-68
2021/03/14 05:52:38;;;;;;;1.80;1.10;;;3.70;99.90;;;;;;5093960;28;20479;-67
2021/03/14 05:55:07;;;;;;;1.00;0.70;;;3.70;99.90;;;;;;5093811;28;20961;-68
2021/03/14 05:57:34;;;;;;;0.70;0.67;;;3.60;99.90;;;;;;5094281;28;20476;-68
2021/03/14 06:00:01;;;;;;;1.20;0.90;;;3.70;99.90;;;;;;5092680;28;20566;-68
2021/03/14 06:02:27;;;;;;;0.70;0.60;;;3.80;99.90;;;;;;5093403;28;20524;-68
2021/03/14 06:04:54;;;;;;;1.37;0.63;;;3.90;99.90;;;;;;5090377;28;20477;-68
2021/03/14 06:07:21;;;;;;;0.80;0.70;;;3.90;99.90;;;;;;5094300;28;20455;-68
2021/03/14 06:09:48;;;;;;;0.87;0.70;;;3.90;99.90;;;;;;5090396;28;20496;-68
2021/03/14 06:12:15;;;;;;;0.70;0.70;;;3.90;99.90;;;;;;5093434;28;21027;-68
2021/03/14 06:14:42;;;;;;;4.57;0.70;;;3.90;99.90;;;;;;5093092;28;20476;-68
2021/03/14 06:17:08;;;;;;;1.00;0.80;;;4.10;99.90;;;;;;5093449;28;20540;-68
2021/03/14 06:19:35;;;;;;;1.27;0.77;;;4.10;99.90;;;;;;5093807;28;20559;-68
2021/03/14 06:22:21;;;;;;;1.17;0.80;;;4.10;99.90;;;;;;5093612;28;20510;-68
2021/03/14 06:24:49;;;;;;;1.40;0.97;;;4.20;99.90;;;;;;5093480;28;20531;-68
2021/03/14 06:27:36;;;;;;;2.40;1.00;;;4.10;99.90;;;;;;5093189;28;20561;-68
2021/03/14 06:30:06;;;;;;;1.50;0.87;;;4.20;99.90;;;;;;5093668;28;20857;-69
2021/03/14 06:32:33;;;;;;;0.70;0.60;;;4.20;99.90;;;;;;5093166;28;20532;-68
2021/03/14 06:35:11;;;;;;;2.70;1.53;;;4.20;99.90;;;;;;5092434;28;20482;-68
2021/03/14 06:37:38;;;;;;;1.17;0.90;;;4.10;99.90;;;;;;5093351;28;20588;-69
2021/03/14 06:40:10;;;;;;;0.93;0.80;;;4.10;99.90;;;;;;5093725;28;20582;-69
2021/03/14 06:42:38;;;;;;;0.80;0.80;;;4.20;99.90;;;;;;5092891;28;20484;-70
2021/03/14 06:45:06;;;;;;;1.73;1.17;;;4.20;99.90;;;;;;5093732;28;20480;-68
2021/03/14 06:47:38;;;;;;;2.73;0.90;;;4.30;99.90;;;;;;5093274;28;21061;-69
2021/03/14 06:50:05;;;;;;;8.87;2.50;;;4.30;99.90;;;;;;5093435;28;20460;-68
2021/03/14 06:52:32;;;;;;;2.73;1.10;;;4.40;99.90;;;;;;5092854;28;20532;-69
2021/03/14 06:54:58;;;;;;;5.27;1.40;;;4.40;99.90;;;;;;5092065;28;20543;-70
2021/03/14 06:57:25;;;;;;;5.83;1.50;;;4.40;99.90;;;;;;5093034;28;20532;-67
2021/03/14 06:59:54;;;;;;;1.10;1.00;;;4.50;99.90;;;;;;5092509;28;21003;-69
2021/03/14 07:02:22;;;;;;;2.23;1.30;;;4.50;99.90;;;;;;5092922;28;20494;-69
2021/03/14 07:04:50;;;;;;;1.40;1.20;;;4.60;99.90;;;;;;5079019;28;20590;-68
2021/03/14 07:07:22;;;;;;;2.73;2.30;;;4.40;99.90;;;;;;5093252;28;20473;-69
2021/03/14 07:09:53;;;;;;;1.80;1.00;;;4.50;99.90;;;;;;5092593;28;20555;-69
2021/03/14 07:12:22;;;;;;;2.10;1.07;;;4.50;99.90;;;;;;5092862;28;20524;-69
2021/03/14 07:14:49;;;;;;;4.83;1.40;;;4.50;99.90;;;;;;5092124;28;20585;-77
2021/03/14 07:17:36;;;;;;;3.80;1.07;;;4.40;77.10;;;;;;5093337;28;20943;-69
2021/03/14 07:20:09;;;;;;;1.00;0.87;;;4.50;83.10;;;;;;5092581;28;20512;-68
2021/03/14 07:22:35;;;;;;;2.60;1.67;;;4.60;20.10;;;;;;5092558;28;20944;-68
2021/03/14 07:25:03;;;;;;;2.90;1.10;;;4.60;1.00;;;;;;5095005;28;20449;-67
2021/03/14 07:27:29;;;;;;;2.43;1.33;;;4.70;1.00;;;;;;5093270;28;20472;-67
2021/03/14 07:29:57;;;;;;;5.07;1.30;;;4.90;1.00;;;;;;5091795;28;20449;-68
2021/03/14 07:32:24;;;;;;;3.63;1.53;;;4.90;1.00;;;;;;5093481;28;20487;-68
2021/03/14 07:34:52;;;;;;;4.10;1.40;;;5.10;1.00;;;;;;5091560;28;20441;-75
2021/03/14 07:37:20;;;;;;;2.50;1.20;;;5.20;99.90;;;;;;5092416;28;20491;-74
2021/03/14 07:39:47;;;;;;;1.53;0.80;;;5.20;99.90;;;;;;5092310;28;20597;-74
2021/03/14 07:42:17;;;;;;;2.30;1.10;;;5.30;99.90;;;;;;5092260;28;20554;-76
2021/03/14 07:44:45;;;;;;;1.00;0.80;;;5.50;1.00;;;;;;5092656;28;20450;-74
2021/03/14 07:47:15;;;;;;;2.00;1.37;;;5.60;99.90;;;;;;5096998;28;20461;-75
2021/03/14 07:49:46;;;;;;;1.20;0.87;;;5.60;99.90;;;;;;5107783;28;20504;-75
2021/03/14 07:52:20;;;;;;;1.20;0.80;;;5.50;99.90;;;;;;5105933;28;20458;-78
2021/03/14 07:54:51;;;;;;;0.60;0.50;;;5.40;99.90;;;;;;5113590;28;20456;-77
2021/03/14 07:57:22;;;;;;;1.40;1.10;;;5.30;1.00;;;;;;5107596;28;20447;-74
2021/03/14 07:59:49;;;;;;;1.93;1.30;;;5.30;1.00;;;;;;5095547;28;20508;-75
2021/03/14 08:02:29;;;;;;;3.13;1.07;;;5.40;1.00;;;;;;5102515;28;20458;-76
2021/03/14 08:04:57;;;;;;;3.47;2.00;;;5.30;99.90;;;;;;5108620;28;20438;-76
2021/03/14 08:07:46;;;;;;;4.13;1.13;;;5.30;99.90;;;;;;5113078;28;20469;-76
2021/03/14 08:10:35;;;;;;;1.50;1.10;;;5.30;99.90;;;;;;5104225;28;20532;-79
2021/03/14 08:13:01;;;;;;;8.70;2.20;;;5.30;99.90;;;;;;5108113;28;20442;-78
2021/03/14 08:15:29;;;;;;;5.00;1.00;;;5.30;99.90;;;;;;5114245;28;20442;-78
2021/03/14 08:17:58;;;;;;;2.97;1.57;;;5.20;99.90;;;;;;5113140;28;20450;-78
2021/03/14 08:20:45;;;;;;;1.40;0.80;;;5.20;99.90;;;;;;5105082;28;20527;-77
2021/03/14 08:23:15;;;;;;;2.43;1.20;;;5.20;99.90;;;;;;5101405;28;20434;-75
2021/03/14 08:25:43;;;;;;;1.80;1.20;;;5.30;99.90;;;;;;5099045;28;20498;-73
2021/03/14 08:28:28;;;;;;;3.77;1.33;;;5.40;99.90;;;;;;5101462;28;21040;-74
2021/03/14 08:30:55;;;;;;;0.80;0.80;;;5.20;99.90;;;;;;5094196;28;21028;-74
2021/03/14 08:33:27;;;;;;;4.87;3.20;;;5.20;99.90;;;;;;5091546;28;20498;-76
2021/03/14 08:35:55;;;;;;;3.03;1.20;;;5.40;1.00;;;;;;5090994;28;20445;-75
2021/03/14 08:38:31;;;;;;;4.17;1.60;;;5.30;99.90;;;;;;5090714;28;20531;-75
2021/03/14 08:41:20;;;;;;;4.97;1.20;;;5.50;99.90;;;;;;5090228;28;20736;-75
2021/03/14 08:43:49;;;;;;;2.90;1.20;;;5.80;99.90;;;;;;5091293;28;20893;-75
2021/03/14 08:46:15;;;;;;;4.27;1.80;;;6.00;99.90;;;;;;5091865;28;20501;-75
2021/03/14 08:48:42;;;;;;;3.77;2.70;;;6.10;1.00;;;;;;5090815;28;20926;-76
2021/03/14 08:51:10;;;;;;;5.43;2.70;;;6.10;1.00;;;;;;5091185;28;20469;-76
2021/03/14 08:53:38;;;;;;;1.17;1.00;;;5.90;99.90;;;;;;5091687;28;20583;-75
2021/03/14 08:56:06;;;;;;;2.40;1.17;;;6.00;1.00;;;;;;5091298;28;20533;-75
2021/03/14 08:58:33;;;;;;;2.90;0.70;;;6.00;99.90;;;;;;5091806;28;20440;-75
2021/03/14 09:01:07;;;;;;;2.03;1.20;;;6.00;99.90;;;;;;5090643;28;20581;-75
2021/03/14 09:03:40;;;;;;;1.87;1.00;;;6.10;99.90;;;;;;5091626;28;20829;-76
2021/03/14 09:06:28;;;;;;;2.97;1.13;;;6.10;1.00;;;;;;5091385;28;20523;-73
2021/03/14 09:08:58;;;;;;;2.90;1.27;;;6.10;99.90;;;;;;5079443;28;20814;-75
2021/03/14 09:11:44;;;;;;;2.47;1.00;;;6.00;1.00;;;;;;5092367;28;20972;-76
2021/03/14 09:14:32;;;;;;;3.50;1.00;;;6.00;1.00;;;;;;5091613;28;20441;-76
2021/03/14 09:17:01;;;;;;;7.33;1.10;;;6.00;1.00;;;;;;5091247;28;20467;-76
2021/03/14 09:19:30;;;;;;;1.20;0.70;;;5.80;99.90;;;;;;5092040;28;20478;-73
2021/03/14 09:21:58;;;;;;;3.10;1.30;;;5.80;1.00;;;;;;5081328;28;20523;-77
2021/03/14 09:24:44;;;;;;;2.37;1.13;;;5.70;1.00;;;;;;5092351;28;20449;-78
2021/03/14 09:27:14;;;;;;;1.93;0.90;;;5.90;1.00;;;;;;5088790;28;20559;-78
2021/03/14 09:29:55;;;;;;;1.77;1.10;;;6.10;6.00;;;;;;5087954;28;20534;-78
2021/03/14 09:32:37;;;;;;;3.47;1.30;;;6.30;99.90;;;;;;5088754;28;20939;-78
2021/03/14 09:35:25;;;;;;;3.47;1.40;;;6.40;99.90;;;;;;5088503;28;20439;-78
2021/03/14 09:37:54;;;;;;;4.23;1.30;;;6.30;99.90;;;;;;5069151;28;20474;-79
2021/03/14 09:40:28;;;;;;;1.77;1.30;;;6.30;1.00;;;;;;5087094;28;20545;-78
2021/03/14 09:43:09;;;;;;;3.23;1.13;;;6.40;99.90;;;;;;5087761;28;20468;-78
2021/03/14 09:45:36;;;;;;;6.03;1.10;;;6.60;1.00;;;;;;5088577;28;20955;-79
2021/03/14 09:48:08;;;;;;;3.23;1.20;;;6.70;1.00;;;;;;5088798;28;20951;-80
2021/03/14 09:50:42;;;;;;;1.70;0.80;;;6.90;1.00;;;;;;5089981;28;20924;-80
2021/03/14 09:53:10;;;;;;;1.67;0.80;;;6.90;1.00;;;;;;5097891;28;20490;-80
2021/03/14 09:55:39;;;;;;;3.13;0.90;;;7.00;1.00;;;;;;5104392;28;20443;-78
2021/03/14 09:58:09;;;;;;;2.33;1.17;;;6.80;99.90;;;;;;5105516;28;20497;-78
2021/03/14 10:00:36;;;;;;;2.80;1.20;;;6.90;1.00;;;;;;5107801;28;20470;-78
2021/03/14 10:03:05;;;;;;;2.30;1.03;;;7.00;1.00;;;;;;5112034;28;20437;-74
2021/03/14 10:05:43;;;;;;;1.40;0.90;;;6.60;99.90;;;;;;5108579;28;20456;-76
2021/03/14 10:08:11;;;;;;;3.23;0.70;;;6.60;1.00;;;;;;5109588;28;20443;-78
2021/03/14 10:10:39;;;;;;;2.50;0.70;;;6.40;99.90;;;;;;5104968;28;20809;-79
2021/03/14 10:13:07;;;;;;;1.40;0.90;;;6.40;1.00;;;;;;5100396;28;20491;-78
2021/03/14 10:15:34;;;;;;;3.80;0.77;;;6.40;1.00;;;;;;5093689;28;20520;-79
2021/03/14 10:18:01;;;;;;;1.20;0.70;;;6.30;1.00;;;;;;5092565;28;20954;-79
2021/03/14 10:20:28;;;;;;;2.10;0.60;;;6.30;1.00;;;;;;5093004;28;20505;-76
2021/03/14 10:22:59;;;;;;;1.23;0.87;;;6.40;99.90;;;;;;5092109;28;20459;-79
2021/03/14 10:25:28;;;;;;;0.70;0.50;;;6.50;1.00;;;;;;5092677;28;20508;-79
2021/03/14 10:28:09;;;;;;;0.80;0.77;;;6.70;1.00;;;;;;5091184;28;20469;-80
2021/03/14 10:30:37;;;;;;;0.93;0.70;;;6.70;99.90;;;;;;5091210;28;20524;-79
2021/03/14 10:33:04;;;;;;;0.90;0.77;;;6.80;99.90;;;;;;5091111;28;20488;-78
2021/03/14 10:35:30;;;;;;;1.30;0.90;;;6.90;99.90;;;;;;5091919;28;20540;-79
2021/03/14 10:37:57;;;;;;;3.80;1.17;;;7.00;1.00;;;;;;5091579;28;20534;-75
2021/03/14 10:40:26;;;;;;;1.03;0.93;;;7.10;1.00;;;;;;5088650;28;21236;-76
2021/03/14 10:42:53;;;;;;;3.33;1.40;;;6.90;99.90;;;;;;5091098;28;20531;-75
2021/03/14 10:45:22;;;;;;;2.57;0.87;;;7.10;1.00;;;;;;5090815;28;20514;-78
2021/03/14 10:47:59;;;;;;;1.47;0.80;;;7.20;1.00;;;;;;5091397;28;20528;-74
2021/03/14 10:50:30;;;;;;;2.10;0.87;;;7.10;99.90;;;;;;5089921;28;20484;-76
2021/03/14 10:53:10;;;;;;;3.90;1.30;;;7.30;99.90;;;;;;5090472;28;20437;-77
2021/03/14 10:55:38;;;;;;;4.43;1.10;;;7.30;99.90;;;;;;5090190;28;20452;-78
2021/03/14 10:58:14;;;;;;;2.93;1.80;;;7.50;99.90;;;;;;5090369;28;20448;-77
2021/03/14 11:00:44;;;;;;;2.50;1.00;;;7.60;99.90;;;;;;5090603;28;20475;-73
2021/03/14 11:03:25;;;;;;;2.30;0.97;;;7.90;99.90;;;;;;5091291;28;20448;-76
2021/03/14 11:05:51;;;;;;;2.60;0.70;;;7.90;1.00;;;;;;5090610;28;20928;-79
2021/03/14 11:08:18;;;;;;;1.13;0.90;;;8.10;1.00;;;;;;5091364;28;20444;-76
2021/03/14 11:10:56;;;;;;;2.40;0.90;;;8.00;1.00;;;;;;5090317;28;20452;-76
2021/03/14 11:13:23;;;;;;;1.17;0.90;;;7.90;1.00;;;;;;5090900;28;20480;-79
2021/03/14 11:16:04;;;;;;;1.87;1.10;;;7.60;1.00;;;;;;5091005;28;20457;-78
2021/03/14 11:18:30;;;;;;;1.87;1.30;;;7.50;1.00;;;;;;5090933;28;20898;-79
2021/03/14 11:20:57;;;;;;;2.43;1.00;;;7.30;1.00;;;;;;5089347;28;20559;-79
2021/03/14 11:23:23;;;;;;;0.70;0.70;;;7.40;1.00;;;;;;5090889;28;20560;-79
2021/03/14 11:25:51;;;;;;;1.60;1.47;;;7.50;1.00;;;;;;5089992;28;20567;-78
2021/03/14 11:28:18;;;;;;;0.83;0.73;;;7.50;1.00;;;;;;5089492;28;20456;-76
2021/03/14 11:30:44;;;;;;;2.37;1.53;;;7.60;1.00;;;;;;5089463;28;21080;-77
2021/03/14 11:33:12;;;;;;;3.30;0.80;;;8.10;1.00;;;;;;5089901;28;20472;-78
2021/03/14 11:35:38;;;;;;;2.77;1.10;;;8.20;99.90;;;;;;5090271;28;20820;-78
2021/03/14 11:38:05;;;;;;;2.30;1.07;;;8.30;99.90;;;;;;5088655;28;20459;-79
2021/03/14 11:40:32;;;;;;;1.57;0.80;;;8.30;99.90;;;;;;5088256;28;20496;-78
2021/03/14 11:42:58;;;;;;;1.40;0.90;;;8.40;99.90;;;;;;5089601;28;21285;-77
2021/03/14 11:45:25;;;;;;;1.30;1.00;;;8.10;99.90;;;;;;5091151;28;20568;-78
2021/03/14 11:47:52;;;;;;;1.40;0.83;;;7.90;99.90;;;;;;5096650;28;20456;-77
2021/03/14 11:50:19;;;;;;;1.27;0.60;;;7.80;99.90;;;;;;5091290;28;20480;-75
2021/03/14 11:52:49;;;;;;;2.30;0.70;;;7.70;99.90;;;;;;5091268;28;20475;-78
2021/03/14 11:55:16;;;;;;;0.87;0.67;;;7.70;99.90;;;;;;5102950;28;20440;-76
2021/03/14 11:57:43;;;;;;;2.10;0.97;;;8.00;99.90;;;;;;5111808;28;20467;-74
2021/03/14 12:00:10;;;;;;;1.10;0.73;;;8.00;99.90;;;;;;5102658;28;20476;-79
2021/03/14 12:02:37;;;;;;;8.57;1.70;;;7.90;99.90;;;;;;5100623;28;20441;-79
2021/03/14 12:05:04;;;;;;;1.47;0.73;;;7.90;99.90;;;;;;5113199;28;20432;-78
2021/03/14 12:07:32;;;;;;;7.50;1.17;;;7.70;99.90;;;;;;5114311;28;20471;-76
2021/03/14 12:09:58;;;;;;;3.53;0.90;;;7.80;99.90;;;;;;5100524;28;20448;-78
2021/03/14 12:12:25;;;;;;;5.23;1.23;;;7.80;99.90;;;;;;5092391;28;20468;-79
2021/03/14 12:14:51;;;;;;;1.00;0.67;;;7.70;99.90;;;;;;5090599;28;20935;-79
2021/03/14 12:17:18;;;;;;;2.10;1.00;;;7.60;1.00;;;;;;5090240;28;20496;-78
2021/03/14 12:19:45;;;;;;;3.70;0.83;;;7.70;1.00;;;;;;5089017;28;20483;-79
2021/03/14 12:22:11;;;;;;;1.00;0.70;;;7.50;1.00;;;;;;5097023;28;20589;-79
2021/03/14 12:24:38;;;;;;;2.20;0.80;;;7.10;7.40;;;;;;5089064;28;20480;-78
2021/03/14 12:27:05;;;;;;;1.80;0.77;;;6.70;1.00;;;;;;5093426;28;20487;-79
2021/03/14 12:29:32;;;;;;;6.60;0.90;;;6.50;99.90;;;;;;5091297;28;20480;-78
2021/03/14 12:31:58;;;;;;;2.60;1.47;;;6.40;1.00;;;;;;5081260;28;20479;-76
2021/03/14 12:34:25;;;;;;;4.23;1.30;;;6.20;99.90;;;;;;5087961;28;20488;-76
2021/03/14 12:36:51;;;;;;;1.40;0.90;;;6.20;24.20;;;;;;5088417;28;20475;-77
2021/03/14 12:39:18;;;;;;;2.37;1.17;;;6.00;1.00;;;;;;5087367;28;20484;-77
2021/03/14 12:41:45;;;;;;;0.70;0.57;;;6.00;1.00;;;;;;5091271;28;20475;-76
2021/03/14 12:44:11;;;;;;;1.40;1.10;;;6.00;99.90;;;;;;5094576;28;20504;-76
2021/03/14 12:46:38;;;;;;;4.87;1.17;;;5.70;99.90;;;;;;5089548;28;20515;-76
2021/03/14 12:49:04;;;;;;;2.67;1.07;;;5.70;99.90;;;;;;5088678;28;20453;-76
2021/03/14 12:51:31;;;;;;;2.70;1.10;;;5.70;1.00;;;;;;5088201;28;20537;-76
2021/03/14 12:53:57;;;;;;;1.03;0.80;;;5.40;1.00;;;;;;5087936;28;20483;-76
2021/03/14 12:56:25;;;;;;;1.93;1.20;;;5.20;99.90;;;;;;5089754;28;20484;-76
2021/03/14 12:58:52;;;;;;;1.60;1.00;;;5.10;99.90;;;;;;5087820;28;20442;-79
2021/03/14 13:01:19;;;;;;;2.60;1.33;;;5.00;99.90;;;;;;5087686;28;20452;-72
2021/03/14 13:03:46;;;;;;;4.30;1.80;;;5.30;99.90;;;;;;5091003;28;20446;-76
2021/03/14 13:06:12;;;;;;;6.93;1.70;;;5.60;99.90;;;;;;5088307;28;20448;-74
2021/03/14 13:08:39;;;;;;;2.80;1.23;;;5.70;99.90;;;;;;5088877;28;20537;-74